sensor_id;sensor_type;location;lat;lon;timestamp;temperature;humidity
24618;DHT22;12762;51.730;5.356;2022-07-25T00:01:47;24.60;57.70
24618;DHT22;12762;51.730;5.356;2022-07-25T00:04:16;24.60;57.20
24618;DHT22;12762;51.730;5.356;2022-07-25T00:06:44;24.60;57.60
24618;DHT22;12762;51.730;5.356;2022-07-25T00:09:11;24.60;57.90
24618;DHT22;12762;51.730;5.356;2022-07-25T00:11:38;24.50;58.00
24618;DHT22;12762;51.730;5.356;2022-07-25T00:14:05;24.40;58.10
24618;DHT22;12762;51.730;5.356;2022-07-25T00:16:33;24.40;58.30
24618;DHT22;12762;51.730;5.356;2022-07-25T00:19:00;24.40;58.40
24618;DHT22;12762;51.730;5.356;2022-07-25T00:21:27;24.30;58.20
24618;DHT22;12762;51.730;5.356;2022-07-25T00:23:54;24.30;58.40
24618;DHT22;12762;51.730;5.356;2022-07-25T00:26:21;24.30;58.50
24618;DHT22;12762;51.730;5.356;2022-07-25T00:28:48;24.30;58.70
24618;DHT22;12762;51.730;5.356;2022-07-25T00:31:15;24.30;58.70
24618;DHT22;12762;51.730;5.356;2022-07-25T00:33:41;24.20;58.80
24618;DHT22;12762;51.730;5.356;2022-07-25T00:36:08;24.20;58.90
24618;DHT22;12762;51.730;5.356;2022-07-25T00:38:35;24.10;58.90
24618;DHT22;12762;51.730;5.356;2022-07-25T00:41:03;24.10;59.00
24618;DHT22;12762;51.730;5.356;2022-07-25T00:43:30;24.10;59.20
24618;DHT22;12762;51.730;5.356;2022-07-25T00:45:57;24.00;59.20
24618;DHT22;12762;51.730;5.356;2022-07-25T00:48:26;24.00;59.30
24618;DHT22;12762;51.730;5.356;2022-07-25T00:50:57;23.90;59.30
24618;DHT22;12762;51.730;5.356;2022-07-25T00:53:24;23.90;59.40
24618;DHT22;12762;51.730;5.356;2022-07-25T00:55:51;23.90;59.40
24618;DHT22;12762;51.730;5.356;2022-07-25T00:58:18;23.80;59.40
24618;DHT22;12762;51.730;5.356;2022-07-25T01:00:46;23.80;59.50
24618;DHT22;12762;51.730;5.356;2022-07-25T01:03:13;23.80;59.60
24618;DHT22;12762;51.730;5.356;2022-07-25T01:05:40;23.80;59.60
24618;DHT22;12762;51.730;5.356;2022-07-25T01:08:08;23.80;59.70
24618;DHT22;12762;51.730;5.356;2022-07-25T01:10:35;23.70;59.70
24618;DHT22;12762;51.730;5.356;2022-07-25T01:13:02;23.70;59.70
24618;DHT22;12762;51.730;5.356;2022-07-25T01:15:29;23.70;59.80
24618;DHT22;12762;51.730;5.356;2022-07-25T01:17:56;23.60;59.80
24618;DHT22;12762;51.730;5.356;2022-07-25T01:20:26;23.60;59.80
24618;DHT22;12762;51.730;5.356;2022-07-25T01:22:53;23.60;59.90
24618;DHT22;12762;51.730;5.356;2022-07-25T01:25:22;23.60;59.90
24618;DHT22;12762;51.730;5.356;2022-07-25T01:27:50;23.60;60.00
24618;DHT22;12762;51.730;5.356;2022-07-25T01:30:22;23.50;59.90
24618;DHT22;12762;51.730;5.356;2022-07-25T01:32:49;23.50;59.80
24618;DHT22;12762;51.730;5.356;2022-07-25T01:35:16;23.50;59.70
24618;DHT22;12762;51.730;5.356;2022-07-25T01:37:43;23.50;59.80
24618;DHT22;12762;51.730;5.356;2022-07-25T01:40:12;23.50;59.80
24618;DHT22;12762;51.730;5.356;2022-07-25T01:42:40;23.50;59.90
24618;DHT22;12762;51.730;5.356;2022-07-25T01:45:08;23.50;59.90
24618;DHT22;12762;51.730;5.356;2022-07-25T01:47:35;23.50;59.80
24618;DHT22;12762;51.730;5.356;2022-07-25T01:50:02;23.50;59.80
24618;DHT22;12762;51.730;5.356;2022-07-25T01:52:29;23.50;59.80
24618;DHT22;12762;51.730;5.356;2022-07-25T01:54:56;23.50;59.80
24618;DHT22;12762;51.730;5.356;2022-07-25T01:57:23;23.50;59.90
24618;DHT22;12762;51.730;5.356;2022-07-25T01:59:56;23.50;59.80
24618;DHT22;12762;51.730;5.356;2022-07-25T02:02:23;23.50;59.80
24618;DHT22;12762;51.730;5.356;2022-07-25T02:04:50;23.50;59.80
24618;DHT22;12762;51.730;5.356;2022-07-25T02:07:17;23.50;59.80
24618;DHT22;12762;51.730;5.356;2022-07-25T02:09:43;23.50;59.80
24618;DHT22;12762;51.730;5.356;2022-07-25T02:12:10;23.50;60.10
24618;DHT22;12762;51.730;5.356;2022-07-25T02:14:37;23.50;59.80
24618;DHT22;12762;51.730;5.356;2022-07-25T02:17:04;23.50;59.80
24618;DHT22;12762;51.730;5.356;2022-07-25T02:19:31;23.50;59.90
24618;DHT22;12762;51.730;5.356;2022-07-25T02:21:58;23.40;60.70
24618;DHT22;12762;51.730;5.356;2022-07-25T02:24:25;23.40;59.90
24618;DHT22;12762;51.730;5.356;2022-07-25T02:26:52;23.30;59.90
24618;DHT22;12762;51.730;5.356;2022-07-25T02:29:18;23.30;60.00
24618;DHT22;12762;51.730;5.356;2022-07-25T02:31:47;23.30;60.00
24618;DHT22;12762;51.730;5.356;2022-07-25T02:34:17;23.30;60.20
24618;DHT22;12762;51.730;5.356;2022-07-25T02:36:44;23.30;60.30
24618;DHT22;12762;51.730;5.356;2022-07-25T02:39:11;23.20;60.30
24618;DHT22;12762;51.730;5.356;2022-07-25T02:41:38;23.20;60.40
24618;DHT22;12762;51.730;5.356;2022-07-25T02:44:05;23.20;60.60
24618;DHT22;12762;51.730;5.356;2022-07-25T02:46:33;23.20;60.50
24618;DHT22;12762;51.730;5.356;2022-07-25T02:49:00;23.10;60.60
24618;DHT22;12762;51.730;5.356;2022-07-25T02:51:26;23.10;60.80
24618;DHT22;12762;51.730;5.356;2022-07-25T02:53:53;23.10;60.90
24618;DHT22;12762;51.730;5.356;2022-07-25T02:56:24;23.00;60.90
24618;DHT22;12762;51.730;5.356;2022-07-25T02:58:51;23.00;60.50
24618;DHT22;12762;51.730;5.356;2022-07-25T03:01:18;23.00;60.80
24618;DHT22;12762;51.730;5.356;2022-07-25T03:03:44;22.90;61.00
24618;DHT22;12762;51.730;5.356;2022-07-25T03:06:11;22.90;61.20
24618;DHT22;12762;51.730;5.356;2022-07-25T03:08:38;22.90;61.40
24618;DHT22;12762;51.730;5.356;2022-07-25T03:11:05;22.80;61.40
24618;DHT22;12762;51.730;5.356;2022-07-25T03:13:32;22.80;61.40
24618;DHT22;12762;51.730;5.356;2022-07-25T03:15:59;22.80;61.60
24618;DHT22;12762;51.730;5.356;2022-07-25T03:18:25;22.80;61.60
24618;DHT22;12762;51.730;5.356;2022-07-25T03:20:52;22.80;61.60
24618;DHT22;12762;51.730;5.356;2022-07-25T03:23:19;22.70;61.50
24618;DHT22;12762;51.730;5.356;2022-07-25T03:25:46;22.70;61.60
24618;DHT22;12762;51.730;5.356;2022-07-25T03:28:12;22.70;61.60
24618;DHT22;12762;51.730;5.356;2022-07-25T03:30:39;22.70;61.60
24618;DHT22;12762;51.730;5.356;2022-07-25T03:33:06;22.60;61.70
24618;DHT22;12762;51.730;5.356;2022-07-25T03:35:33;22.60;61.80
24618;DHT22;12762;51.730;5.356;2022-07-25T03:38:00;22.60;61.90
24618;DHT22;12762;51.730;5.356;2022-07-25T03:40:27;22.60;62.10
24618;DHT22;12762;51.730;5.356;2022-07-25T03:42:54;22.50;62.10
24618;DHT22;12762;51.730;5.356;2022-07-25T03:45:21;22.50;62.20
24618;DHT22;12762;51.730;5.356;2022-07-25T03:47:48;22.50;62.30
24618;DHT22;12762;51.730;5.356;2022-07-25T03:50:14;22.50;62.40
24618;DHT22;12762;51.730;5.356;2022-07-25T03:52:41;22.50;62.40
24618;DHT22;12762;51.730;5.356;2022-07-25T03:55:10;22.40;62.40
24618;DHT22;12762;51.730;5.356;2022-07-25T03:57:37;22.40;62.40
24618;DHT22;12762;51.730;5.356;2022-07-25T04:00:06;22.40;62.40
24618;DHT22;12762;51.730;5.356;2022-07-25T04:02:33;22.40;62.30
24618;DHT22;12762;51.730;5.356;2022-07-25T04:05:00;22.40;62.30
24618;DHT22;12762;51.730;5.356;2022-07-25T04:07:27;22.40;62.20
24618;DHT22;12762;51.730;5.356;2022-07-25T04:09:54;22.40;62.20
24618;DHT22;12762;51.730;5.356;2022-07-25T04:12:21;22.40;62.10
24618;DHT22;12762;51.730;5.356;2022-07-25T04:14:48;22.40;62.10
24618;DHT22;12762;51.730;5.356;2022-07-25T04:17:15;22.40;62.20
24618;DHT22;12762;51.730;5.356;2022-07-25T04:19:42;22.40;62.20
24618;DHT22;12762;51.730;5.356;2022-07-25T04:22:09;22.40;62.30
24618;DHT22;12762;51.730;5.356;2022-07-25T04:24:36;22.40;62.30
24618;DHT22;12762;51.730;5.356;2022-07-25T04:27:03;22.40;62.30
24618;DHT22;12762;51.730;5.356;2022-07-25T04:29:30;22.40;62.20
24618;DHT22;12762;51.730;5.356;2022-07-25T04:31:56;22.40;62.10
24618;DHT22;12762;51.730;5.356;2022-07-25T04:34:23;22.40;62.10
24618;DHT22;12762;51.730;5.356;2022-07-25T04:36:50;22.40;62.10
24618;DHT22;12762;51.730;5.356;2022-07-25T04:39:17;22.50;62.20
24618;DHT22;12762;51.730;5.356;2022-07-25T04:41:44;22.50;62.20
24618;DHT22;12762;51.730;5.356;2022-07-25T04:44:11;22.50;62.20
24618;DHT22;12762;51.730;5.356;2022-07-25T04:46:39;22.50;62.10
24618;DHT22;12762;51.730;5.356;2022-07-25T04:49:06;22.50;62.10
24618;DHT22;12762;51.730;5.356;2022-07-25T04:51:36;22.50;61.90
24618;DHT22;12762;51.730;5.356;2022-07-25T04:54:03;22.60;61.90
24618;DHT22;12762;51.730;5.356;2022-07-25T04:56:30;22.60;61.80
24618;DHT22;12762;51.730;5.356;2022-07-25T04:58:57;22.70;61.70
24618;DHT22;12762;51.730;5.356;2022-07-25T05:01:31;22.80;61.70
24618;DHT22;12762;51.730;5.356;2022-07-25T05:03:58;22.80;61.50
24618;DHT22;12762;51.730;5.356;2022-07-25T05:06:25;22.80;61.30
24618;DHT22;12762;51.730;5.356;2022-07-25T05:08:52;22.80;61.30
24618;DHT22;12762;51.730;5.356;2022-07-25T05:11:18;22.90;61.40
24618;DHT22;12762;51.730;5.356;2022-07-25T05:13:45;22.90;61.30
24618;DHT22;12762;51.730;5.356;2022-07-25T05:16:12;22.90;61.30
24618;DHT22;12762;51.730;5.356;2022-07-25T05:18:39;23.00;61.40
24618;DHT22;12762;51.730;5.356;2022-07-25T05:21:11;23.00;61.30
24618;DHT22;12762;51.730;5.356;2022-07-25T05:23:39;23.00;61.20
24618;DHT22;12762;51.730;5.356;2022-07-25T05:26:06;23.00;61.20
24618;DHT22;12762;51.730;5.356;2022-07-25T05:28:33;23.10;61.20
24618;DHT22;12762;51.730;5.356;2022-07-25T05:31:00;23.10;61.20
24618;DHT22;12762;51.730;5.356;2022-07-25T05:33:27;23.10;61.30
24618;DHT22;12762;51.730;5.356;2022-07-25T05:35:54;23.20;61.20
24618;DHT22;12762;51.730;5.356;2022-07-25T05:38:20;23.20;61.20
24618;DHT22;12762;51.730;5.356;2022-07-25T05:40:47;23.30;61.20
24618;DHT22;12762;51.730;5.356;2022-07-25T05:43:17;23.30;61.20
24618;DHT22;12762;51.730;5.356;2022-07-25T05:45:44;23.30;61.00
24618;DHT22;12762;51.730;5.356;2022-07-25T05:48:13;23.40;60.90
24618;DHT22;12762;51.730;5.356;2022-07-25T05:50:40;23.40;60.90
24618;DHT22;12762;51.730;5.356;2022-07-25T05:53:07;23.40;60.80
24618;DHT22;12762;51.730;5.356;2022-07-25T05:55:34;23.50;60.90
24618;DHT22;12762;51.730;5.356;2022-07-25T05:58:06;23.50;60.90
24618;DHT22;12762;51.730;5.356;2022-07-25T06:00:33;23.50;60.80
24618;DHT22;12762;51.730;5.356;2022-07-25T06:02:59;23.50;60.80
24618;DHT22;12762;51.730;5.356;2022-07-25T06:05:26;23.60;60.70
24618;DHT22;12762;51.730;5.356;2022-07-25T06:07:53;23.60;60.70
24618;DHT22;12762;51.730;5.356;2022-07-25T06:10:20;23.60;60.70
24618;DHT22;12762;51.730;5.356;2022-07-25T06:12:47;23.70;60.70
24618;DHT22;12762;51.730;5.356;2022-07-25T06:15:15;23.80;60.70
24618;DHT22;12762;51.730;5.356;2022-07-25T06:17:51;23.80;60.40
24618;DHT22;12762;51.730;5.356;2022-07-25T06:20:18;23.80;60.20
24618;DHT22;12762;51.730;5.356;2022-07-25T06:22:45;23.90;60.30
24618;DHT22;12762;51.730;5.356;2022-07-25T06:25:11;23.90;60.10
24618;DHT22;12762;51.730;5.356;2022-07-25T06:27:38;23.90;59.80
24618;DHT22;12762;51.730;5.356;2022-07-25T06:30:07;23.90;59.80
24618;DHT22;12762;51.730;5.356;2022-07-25T06:32:45;23.90;59.80
24618;DHT22;12762;51.730;5.356;2022-07-25T06:35:12;23.90;59.90
24618;DHT22;12762;51.730;5.356;2022-07-25T06:37:39;23.90;59.90
24618;DHT22;12762;51.730;5.356;2022-07-25T06:40:06;23.90;59.90
24618;DHT22;12762;51.730;5.356;2022-07-25T06:42:41;23.90;60.00
24618;DHT22;12762;51.730;5.356;2022-07-25T06:45:09;24.00;60.10
24618;DHT22;12762;51.730;5.356;2022-07-25T06:47:37;24.00;60.20
24618;DHT22;12762;51.730;5.356;2022-07-25T06:50:06;24.10;60.30
24618;DHT22;12762;51.730;5.356;2022-07-25T06:52:33;24.30;60.40
24618;DHT22;12762;51.730;5.356;2022-07-25T06:55:00;24.30;60.00
24618;DHT22;12762;51.730;5.356;2022-07-25T06:57:27;24.40;59.80
24618;DHT22;12762;51.730;5.356;2022-07-25T06:59:54;24.30;60.10
24618;DHT22;12762;51.730;5.356;2022-07-25T07:02:21;24.30;59.80
24618;DHT22;12762;51.730;5.356;2022-07-25T07:04:48;24.30;60.60
24618;DHT22;12762;51.730;5.356;2022-07-25T07:07:15;24.30;59.90
24618;DHT22;12762;51.730;5.356;2022-07-25T07:09:43;24.30;60.00
24618;DHT22;12762;51.730;5.356;2022-07-25T07:12:10;24.30;60.20
24618;DHT22;12762;51.730;5.356;2022-07-25T07:14:36;24.50;60.20
24618;DHT22;12762;51.730;5.356;2022-07-25T07:17:04;24.60;60.50
24618;DHT22;12762;51.730;5.356;2022-07-25T07:19:31;24.90;60.10
24618;DHT22;12762;51.730;5.356;2022-07-25T07:21:58;25.00;59.70
24618;DHT22;12762;51.730;5.356;2022-07-25T07:24:25;24.90;59.50
24618;DHT22;12762;51.730;5.356;2022-07-25T07:26:53;24.90;59.60
24618;DHT22;12762;51.730;5.356;2022-07-25T07:29:20;24.90;59.80
24618;DHT22;12762;51.730;5.356;2022-07-25T07:31:47;24.90;60.00
24618;DHT22;12762;51.730;5.356;2022-07-25T07:34:14;24.90;60.10
24618;DHT22;12762;51.730;5.356;2022-07-25T07:36:42;24.90;60.30
24618;DHT22;12762;51.730;5.356;2022-07-25T07:39:09;24.90;60.50
24618;DHT22;12762;51.730;5.356;2022-07-25T07:41:36;24.90;60.80
24618;DHT22;12762;51.730;5.356;2022-07-25T07:44:04;24.90;60.90
24618;DHT22;12762;51.730;5.356;2022-07-25T07:46:31;24.90;60.90
24618;DHT22;12762;51.730;5.356;2022-07-25T07:48:57;24.90;60.90
24618;DHT22;12762;51.730;5.356;2022-07-25T07:51:24;24.90;61.00
24618;DHT22;12762;51.730;5.356;2022-07-25T07:53:51;25.00;61.30
24618;DHT22;12762;51.730;5.356;2022-07-25T07:56:38;25.00;61.20
24618;DHT22;12762;51.730;5.356;2022-07-25T07:59:05;25.10;61.10
24618;DHT22;12762;51.730;5.356;2022-07-25T08:01:33;25.30;61.20
24618;DHT22;12762;51.730;5.356;2022-07-25T08:04:00;25.50;61.00
24618;DHT22;12762;51.730;5.356;2022-07-25T08:06:27;25.70;60.80
24618;DHT22;12762;51.730;5.356;2022-07-25T08:08:55;25.90;60.50
24618;DHT22;12762;51.730;5.356;2022-07-25T08:11:22;26.00;60.10
24618;DHT22;12762;51.730;5.356;2022-07-25T08:13:49;26.20;60.20
24618;DHT22;12762;51.730;5.356;2022-07-25T08:16:17;26.50;60.20
24618;DHT22;12762;51.730;5.356;2022-07-25T08:18:45;26.90;59.50
24618;DHT22;12762;51.730;5.356;2022-07-25T08:21:12;27.10;58.90
24618;DHT22;12762;51.730;5.356;2022-07-25T08:23:40;27.10;58.80
24618;DHT22;12762;51.730;5.356;2022-07-25T08:26:07;27.10;58.80
24618;DHT22;12762;51.730;5.356;2022-07-25T08:28:34;27.20;58.60
24618;DHT22;12762;51.730;5.356;2022-07-25T08:31:01;27.20;58.50
24618;DHT22;12762;51.730;5.356;2022-07-25T08:33:28;27.10;58.60
24618;DHT22;12762;51.730;5.356;2022-07-25T08:35:55;27.10;58.40
24618;DHT22;12762;51.730;5.356;2022-07-25T08:38:26;27.00;58.20
24618;DHT22;12762;51.730;5.356;2022-07-25T08:40:55;27.00;58.50
24618;DHT22;12762;51.730;5.356;2022-07-25T08:43:22;26.90;58.50
24618;DHT22;12762;51.730;5.356;2022-07-25T08:45:51;26.90;58.70
24618;DHT22;12762;51.730;5.356;2022-07-25T08:48:21;26.90;58.70
24618;DHT22;12762;51.730;5.356;2022-07-25T08:50:49;26.90;58.70
24618;DHT22;12762;51.730;5.356;2022-07-25T08:53:18;26.90;58.70
24618;DHT22;12762;51.730;5.356;2022-07-25T08:56:06;26.80;58.60
24618;DHT22;12762;51.730;5.356;2022-07-25T08:58:44;26.90;58.90
24618;DHT22;12762;51.730;5.356;2022-07-25T09:01:12;26.90;59.00
24618;DHT22;12762;51.730;5.356;2022-07-25T09:03:41;26.90;58.90
24618;DHT22;12762;51.730;5.356;2022-07-25T09:06:18;27.10;59.00
24618;DHT22;12762;51.730;5.356;2022-07-25T09:08:57;27.40;58.40
24618;DHT22;12762;51.730;5.356;2022-07-25T09:11:33;27.50;57.90
24618;DHT22;12762;51.730;5.356;2022-07-25T09:14:08;27.60;57.30
24618;DHT22;12762;51.730;5.356;2022-07-25T09:16:43;27.70;57.30
24618;DHT22;12762;51.730;5.356;2022-07-25T09:19:18;27.80;57.10
24618;DHT22;12762;51.730;5.356;2022-07-25T09:22:06;27.90;56.60
24618;DHT22;12762;51.730;5.356;2022-07-25T09:24:42;27.90;56.40
24618;DHT22;12762;51.730;5.356;2022-07-25T09:27:10;27.80;56.40
24618;DHT22;12762;51.730;5.356;2022-07-25T09:29:40;27.90;56.20
24618;DHT22;12762;51.730;5.356;2022-07-25T09:32:17;28.00;56.10
24618;DHT22;12762;51.730;5.356;2022-07-25T09:34:47;28.30;55.90
24618;DHT22;12762;51.730;5.356;2022-07-25T09:37:17;28.60;55.50
24618;DHT22;12762;51.730;5.356;2022-07-25T09:39:50;28.90;55.00
24618;DHT22;12762;51.730;5.356;2022-07-25T09:42:24;29.10;54.10
24618;DHT22;12762;51.730;5.356;2022-07-25T09:45:08;29.20;54.10
24618;DHT22;12762;51.730;5.356;2022-07-25T09:48:02;29.40;53.60
24618;DHT22;12762;51.730;5.356;2022-07-25T09:50:31;29.50;53.70
24618;DHT22;12762;51.730;5.356;2022-07-25T09:53:00;29.60;52.70
24618;DHT22;12762;51.730;5.356;2022-07-25T09:55:29;29.50;52.30
24618;DHT22;12762;51.730;5.356;2022-07-25T09:58:00;29.40;52.30
24618;DHT22;12762;51.730;5.356;2022-07-25T10:00:27;29.40;52.80
24618;DHT22;12762;51.730;5.356;2022-07-25T10:03:09;29.50;52.40
24618;DHT22;12762;51.730;5.356;2022-07-25T10:08:26;29.80;50.90
24618;DHT22;12762;51.730;5.356;2022-07-25T10:10:54;29.80;51.10
24618;DHT22;12762;51.730;5.356;2022-07-25T10:13:32;29.80;50.70
24618;DHT22;12762;51.730;5.356;2022-07-25T10:16:20;29.90;50.60
24618;DHT22;12762;51.730;5.356;2022-07-25T10:21:16;30.20;50.20
24618;DHT22;12762;51.730;5.356;2022-07-25T10:24:07;30.30;50.00
24618;DHT22;12762;51.730;5.356;2022-07-25T10:26:36;30.20;49.80
24618;DHT22;12762;51.730;5.356;2022-07-25T10:29:10;30.20;49.70
24618;DHT22;12762;51.730;5.356;2022-07-25T10:31:42;30.10;49.50
24618;DHT22;12762;51.730;5.356;2022-07-25T10:34:27;30.00;49.60
24618;DHT22;12762;51.730;5.356;2022-07-25T10:37:07;29.90;49.70
24618;DHT22;12762;51.730;5.356;2022-07-25T10:39:39;29.70;50.00
24618;DHT22;12762;51.730;5.356;2022-07-25T10:42:12;29.60;50.10
24618;DHT22;12762;51.730;5.356;2022-07-25T10:44:44;29.50;50.40
24618;DHT22;12762;51.730;5.356;2022-07-25T10:47:14;29.50;50.40
24618;DHT22;12762;51.730;5.356;2022-07-25T10:49:43;29.60;51.00
24618;DHT22;12762;51.730;5.356;2022-07-25T10:52:40;29.50;50.20
24618;DHT22;12762;51.730;5.356;2022-07-25T10:55:08;29.40;50.40
24618;DHT22;12762;51.730;5.356;2022-07-25T10:57:38;29.30;50.80
24618;DHT22;12762;51.730;5.356;2022-07-25T11:00:26;29.20;51.00
24618;DHT22;12762;51.730;5.356;2022-07-25T11:02:56;29.30;51.00
24618;DHT22;12762;51.730;5.356;2022-07-25T11:05:23;29.30;50.70
24618;DHT22;12762;51.730;5.356;2022-07-25T11:07:51;29.10;50.70
24618;DHT22;12762;51.730;5.356;2022-07-25T11:10:38;28.90;50.90
24618;DHT22;12762;51.730;5.356;2022-07-25T11:13:13;28.70;51.30
24618;DHT22;12762;51.730;5.356;2022-07-25T11:15:40;28.60;51.60
24618;DHT22;12762;51.730;5.356;2022-07-25T11:18:07;28.50;51.80
24618;DHT22;12762;51.730;5.356;2022-07-25T11:20:34;28.30;52.00
24618;DHT22;12762;51.730;5.356;2022-07-25T11:23:03;28.20;52.20
24618;DHT22;12762;51.730;5.356;2022-07-25T11:25:30;28.10;52.00
24618;DHT22;12762;51.730;5.356;2022-07-25T11:28:00;27.80;52.20
24618;DHT22;12762;51.730;5.356;2022-07-25T11:30:28;27.80;52.40
24618;DHT22;12762;51.730;5.356;2022-07-25T11:32:58;27.60;52.60
24618;DHT22;12762;51.730;5.356;2022-07-25T11:35:28;27.50;52.60
24618;DHT22;12762;51.730;5.356;2022-07-25T11:37:59;27.40;52.90
24618;DHT22;12762;51.730;5.356;2022-07-25T11:40:27;27.40;52.80
24618;DHT22;12762;51.730;5.356;2022-07-25T11:42:58;27.60;53.20
24618;DHT22;12762;51.730;5.356;2022-07-25T11:45:28;27.80;52.50
24618;DHT22;12762;51.730;5.356;2022-07-25T11:48:07;27.90;52.30
24618;DHT22;12762;51.730;5.356;2022-07-25T11:50:37;28.10;52.00
24618;DHT22;12762;51.730;5.356;2022-07-25T11:53:07;28.00;51.60
24618;DHT22;12762;51.730;5.356;2022-07-25T11:55:36;27.90;51.60
24618;DHT22;12762;51.730;5.356;2022-07-25T11:58:06;27.90;51.80
24618;DHT22;12762;51.730;5.356;2022-07-25T12:00:35;27.90;52.30
24618;DHT22;12762;51.730;5.356;2022-07-25T12:03:10;27.80;51.40
24618;DHT22;12762;51.730;5.356;2022-07-25T12:05:45;27.70;51.60
24618;DHT22;12762;51.730;5.356;2022-07-25T12:08:18;27.60;51.80
24618;DHT22;12762;51.730;5.356;2022-07-25T12:10:46;27.40;51.80
24618;DHT22;12762;51.730;5.356;2022-07-25T12:13:27;27.40;52.00
24618;DHT22;12762;51.730;5.356;2022-07-25T12:15:56;27.30;51.90
24618;DHT22;12762;51.730;5.356;2022-07-25T12:18:24;27.30;52.20
24618;DHT22;12762;51.730;5.356;2022-07-25T12:20:52;27.20;52.30
24618;DHT22;12762;51.730;5.356;2022-07-25T12:23:19;27.10;52.50
24618;DHT22;12762;51.730;5.356;2022-07-25T12:25:47;26.90;52.80
24618;DHT22;12762;51.730;5.356;2022-07-25T12:28:14;26.60;53.20
24618;DHT22;12762;51.730;5.356;2022-07-25T12:30:42;26.50;53.70
24618;DHT22;12762;51.730;5.356;2022-07-25T12:33:10;26.30;54.00
24618;DHT22;12762;51.730;5.356;2022-07-25T12:35:39;26.20;54.20
24618;DHT22;12762;51.730;5.356;2022-07-25T12:38:07;26.00;54.10
24618;DHT22;12762;51.730;5.356;2022-07-25T12:40:34;25.80;54.20
24618;DHT22;12762;51.730;5.356;2022-07-25T12:43:03;25.70;54.40
24618;DHT22;12762;51.730;5.356;2022-07-25T12:45:29;25.60;54.40
24618;DHT22;12762;51.730;5.356;2022-07-25T12:47:57;25.60;54.50
24618;DHT22;12762;51.730;5.356;2022-07-25T12:50:23;25.60;54.70
24618;DHT22;12762;51.730;5.356;2022-07-25T12:52:52;25.80;54.30
24618;DHT22;12762;51.730;5.356;2022-07-25T12:55:19;26.00;54.00
24618;DHT22;12762;51.730;5.356;2022-07-25T12:57:47;26.20;53.60
24618;DHT22;12762;51.730;5.356;2022-07-25T13:00:17;26.60;53.40
24618;DHT22;12762;51.730;5.356;2022-07-25T13:02:44;27.00;52.60
24618;DHT22;12762;51.730;5.356;2022-07-25T13:05:11;27.10;51.90
24618;DHT22;12762;51.730;5.356;2022-07-25T13:07:38;27.20;52.70
24618;DHT22;12762;51.730;5.356;2022-07-25T13:10:06;27.10;52.00
24618;DHT22;12762;51.730;5.356;2022-07-25T13:12:34;27.00;52.20
24618;DHT22;12762;51.730;5.356;2022-07-25T13:15:01;26.90;52.30
24618;DHT22;12762;51.730;5.356;2022-07-25T13:17:28;26.70;52.40
24618;DHT22;12762;51.730;5.356;2022-07-25T13:19:56;26.60;52.70
24618;DHT22;12762;51.730;5.356;2022-07-25T13:22:23;26.70;52.90
24618;DHT22;12762;51.730;5.356;2022-07-25T13:24:51;26.90;52.60
24618;DHT22;12762;51.730;5.356;2022-07-25T13:27:20;27.10;52.40
24618;DHT22;12762;51.730;5.356;2022-07-25T13:29:47;27.20;51.90
24618;DHT22;12762;51.730;5.356;2022-07-25T13:32:21;27.30;51.50
24618;DHT22;12762;51.730;5.356;2022-07-25T13:34:48;27.50;51.60
24618;DHT22;12762;51.730;5.356;2022-07-25T13:37:15;27.60;51.10
24618;DHT22;12762;51.730;5.356;2022-07-25T13:39:42;27.80;51.10
24618;DHT22;12762;51.730;5.356;2022-07-25T13:42:09;28.00;50.60
24618;DHT22;12762;51.730;5.356;2022-07-25T13:44:36;28.20;50.20
24618;DHT22;12762;51.730;5.356;2022-07-25T13:47:03;28.30;49.90
24618;DHT22;12762;51.730;5.356;2022-07-25T13:49:31;28.50;49.80
24618;DHT22;12762;51.730;5.356;2022-07-25T13:52:01;28.60;49.50
24618;DHT22;12762;51.730;5.356;2022-07-25T13:54:29;28.70;49.10
24618;DHT22;12762;51.730;5.356;2022-07-25T13:56:56;28.80;49.00
24618;DHT22;12762;51.730;5.356;2022-07-25T13:59:23;28.90;48.60
24618;DHT22;12762;51.730;5.356;2022-07-25T14:01:50;28.80;48.10
24618;DHT22;12762;51.730;5.356;2022-07-25T14:04:17;28.70;48.10
24618;DHT22;12762;51.730;5.356;2022-07-25T14:06:44;28.60;48.20
24618;DHT22;12762;51.730;5.356;2022-07-25T14:09:11;28.60;48.40
24618;DHT22;12762;51.730;5.356;2022-07-25T14:11:38;28.50;48.40
24618;DHT22;12762;51.730;5.356;2022-07-25T14:14:05;28.40;48.60
24618;DHT22;12762;51.730;5.356;2022-07-25T14:16:32;28.50;48.50
24618;DHT22;12762;51.730;5.356;2022-07-25T14:19:00;28.50;48.30
24618;DHT22;12762;51.730;5.356;2022-07-25T14:21:29;28.60;48.20
24618;DHT22;12762;51.730;5.356;2022-07-25T14:23:56;28.60;48.20
24618;DHT22;12762;51.730;5.356;2022-07-25T14:26:23;28.70;48.80
24618;DHT22;12762;51.730;5.356;2022-07-25T14:28:51;28.70;47.90
24618;DHT22;12762;51.730;5.356;2022-07-25T14:31:18;28.60;47.90
24618;DHT22;12762;51.730;5.356;2022-07-25T14:33:47;28.30;47.60
24618;DHT22;12762;51.730;5.356;2022-07-25T14:36:13;28.10;47.70
24618;DHT22;12762;51.730;5.356;2022-07-25T14:38:41;28.10;47.80
24618;DHT22;12762;51.730;5.356;2022-07-25T14:41:08;27.90;47.70
24618;DHT22;12762;51.730;5.356;2022-07-25T14:43:39;27.90;47.90
24618;DHT22;12762;51.730;5.356;2022-07-25T14:46:06;27.80;48.00
24618;DHT22;12762;51.730;5.356;2022-07-25T14:48:35;27.90;48.10
24618;DHT22;12762;51.730;5.356;2022-07-25T14:51:04;27.90;47.90
24618;DHT22;12762;51.730;5.356;2022-07-25T14:53:31;27.90;47.60
24618;DHT22;12762;51.730;5.356;2022-07-25T14:55:59;27.70;47.70
24618;DHT22;12762;51.730;5.356;2022-07-25T14:58:26;27.60;47.70
24618;DHT22;12762;51.730;5.356;2022-07-25T15:00:53;27.50;48.10
24618;DHT22;12762;51.730;5.356;2022-07-25T15:03:20;27.40;48.10
24618;DHT22;12762;51.730;5.356;2022-07-25T15:05:48;27.30;48.10
24618;DHT22;12762;51.730;5.356;2022-07-25T15:08:15;27.30;47.90
24618;DHT22;12762;51.730;5.356;2022-07-25T15:10:42;27.20;47.90
24618;DHT22;12762;51.730;5.356;2022-07-25T15:13:09;27.20;47.70
24618;DHT22;12762;51.730;5.356;2022-07-25T15:15:57;27.20;47.60
24618;DHT22;12762;51.730;5.356;2022-07-25T15:18:24;27.30;47.50
24618;DHT22;12762;51.730;5.356;2022-07-25T15:20:51;27.40;47.20
24618;DHT22;12762;51.730;5.356;2022-07-25T15:23:18;27.40;47.20
24618;DHT22;12762;51.730;5.356;2022-07-25T15:25:47;27.40;46.80
24618;DHT22;12762;51.730;5.356;2022-07-25T15:28:32;27.40;46.50
24618;DHT22;12762;51.730;5.356;2022-07-25T15:30:59;27.20;46.70
24618;DHT22;12762;51.730;5.356;2022-07-25T15:33:28;27.20;47.30
24618;DHT22;12762;51.730;5.356;2022-07-25T15:35:55;27.40;47.30
24618;DHT22;12762;51.730;5.356;2022-07-25T15:38:22;27.50;47.00
24618;DHT22;12762;51.730;5.356;2022-07-25T15:40:50;27.60;46.60
24618;DHT22;12762;51.730;5.356;2022-07-25T15:43:17;27.50;46.50
24618;DHT22;12762;51.730;5.356;2022-07-25T15:45:46;27.50;46.60